Aérodrome :
LOGIN :

S'inscrire | Disclaimer

   EN    FR    IT 

 










Légende :    VFR   VFR Marginal   IFR   IFR Intensif   IFR Très Intensif
Visi : 
Plafond : 
>= 8 km
>= 3000ft
5 à 8 km
1000 à 3000 ft
1500m à 5 km
500 à 1000 ft
800 à 1500m
200 à 500 ft
< 800m
< 200 ft
Symboles :   Orages  Brouillard  Fortes neiges  Fortes précipitations  Vent > 20 kt
SIGMETs :   Divers  Orages  Givrage  Turbulence  Onde Orograph.  Cendres Volcan.







- Altitude de l'aérodrome : 364 ft
- Code IATA : FRA


EDDF - Frankfurt Int.

DERNIER METAR :
  • 220120Z 28010KT 260V320 CAVOK 11/05 Q1024 NOSIG

METARs EXPIRÉS :
  • 220050Z 28010KT CAVOK 11/05 Q1024 NOSIG
  • 220020Z 31012KT CAVOK 12/05 Q1024 NOSIG
  • 212350Z 31011KT CAVOK 13/05 Q1023 NOSIG
  • 212320Z 30009KT 260V340 CAVOK 12/05 Q1023 NOSIG
  • 212250Z 27008KT CAVOK 13/05 Q1023 NOSIG

TAF TAF EDDF
Valide du 22 à 00h jusqu'au 23 à 06h UTC


212300Z 2200/2306 27008KT CAVOK
TEMPO 2206/2213 BKN040
TEMPO 2209/2218 30012G25KT
Pas de NOTAMs connus pour ce terrain.



MET'MAP, la Météo Aéronautique d'un coup d'oeil ! - Copyright ORBIFLY Décembre 2007 - Disclaimer

ORBIFLY MET'MAP TEAM :

Programmation & Développement : Alexandra Zaïnal
Conception & Développement : Baudouin d'Aumeries
Co-Programmation & Développement : Marc-Olivier Méhu
Soutien technique & logistique : Manuel Goepfert

Contact : metmap@orbifly.com




SOURCES & CREDITS :

   NOAA